sensor_id;sensor_type;location;lat;lon;timestamp;pressure;altitude;pressure_sealevel;temperature
15333;BMP180;7766;51.534;6.722;2023-03-01T12:47:51;101923.78;;;22.74
15333;BMP180;7766;51.534;6.722;2023-03-01T12:50:22;101916.72;;;24.34
15333;BMP180;7766;51.534;6.722;2023-03-01T12:51:26;101922.91;;;24.62
15333;BMP180;7766;51.534;6.722;2023-03-01T12:52:41;101913.06;;;23.63
15333;BMP180;7766;51.534;6.722;2023-03-01T12:53:48;101917.19;;;24.31
15333;BMP180;7766;51.534;6.722;2023-03-01T12:54:52;101903.44;;;24.55
15333;BMP180;7766;51.534;6.722;2023-03-01T12:56:00;101904.41;;;24.65
15333;BMP180;7766;51.534;6.722;2023-03-01T12:57:17;101908.41;;;24.79
15333;BMP180;7766;51.534;6.722;2023-03-01T12:58:32;101903.94;;;24.41
15333;BMP180;7766;51.534;6.722;2023-03-01T13:01:31;101904.25;;;24.28
15333;BMP180;7766;51.534;6.722;2023-03-01T13:08:19;101894.75;;;24.37
15333;BMP180;7766;51.534;6.722;2023-03-01T13:10:53;101893.38;;;23.13
15333;BMP180;7766;51.534;6.722;2023-03-01T13:11:57;101897.00;;;23.52
15333;BMP180;7766;51.534;6.722;2023-03-01T13:13:02;101891.00;;;23.72
15333;BMP180;7766;51.534;6.722;2023-03-01T13:15:27;101892.59;;;23.13
15333;BMP180;7766;51.534;6.722;2023-03-01T13:17:32;101895.00;;;22.70
15333;BMP180;7766;51.534;6.722;2023-03-01T13:18:33;101893.09;;;22.59
15333;BMP180;7766;51.534;6.722;2023-03-01T13:19:34;101898.13;;;21.46
15333;BMP180;7766;51.534;6.722;2023-03-01T13:21:48;101904.38;;;20.09
15333;BMP180;7766;51.534;6.722;2023-03-01T13:23:02;101905.38;;;20.14
15333;BMP180;7766;51.534;6.722;2023-03-01T13:24:04;101905.09;;;19.92
15333;BMP180;7766;51.534;6.722;2023-03-01T13:25:19;101912.16;;;20.47
15333;BMP180;7766;51.534;6.722;2023-03-01T13:26:20;101902.91;;;20.49
15333;BMP180;7766;51.534;6.722;2023-03-01T13:27:23;101896.19;;;19.61
15333;BMP180;7766;51.534;6.722;2023-03-01T13:29:45;101891.97;;;20.33
15333;BMP180;7766;51.534;6.722;2023-03-01T13:30:47;101894.69;;;20.51
15333;BMP180;7766;51.534;6.722;2023-03-01T13:32:49;101888.97;;;20.47
15333;BMP180;7766;51.534;6.722;2023-03-01T13:33:51;101885.75;;;20.63
15333;BMP180;7766;51.534;6.722;2023-03-01T13:36:08;101877.38;;;20.83
15333;BMP180;7766;51.534;6.722;2023-03-01T13:37:18;101874.03;;;21.11
15333;BMP180;7766;51.534;6.722;2023-03-01T13:38:41;101870.53;;;20.39
15333;BMP180;7766;51.534;6.722;2023-03-01T13:39:45;101871.81;;;20.31
15333;BMP180;7766;51.534;6.722;2023-03-01T13:41:56;101867.69;;;20.35
15333;BMP180;7766;51.534;6.722;2023-03-01T13:43:30;101874.63;;;19.69
15333;BMP180;7766;51.534;6.722;2023-03-01T13:44:42;101871.03;;;20.24
15333;BMP180;7766;51.534;6.722;2023-03-01T13:45:45;101864.00;;;20.35
15333;BMP180;7766;51.534;6.722;2023-03-01T13:46:48;101858.88;;;20.82
15333;BMP180;7766;51.534;6.722;2023-03-01T13:47:59;101848.19;;;21.58
15333;BMP180;7766;51.534;6.722;2023-03-01T13:49:01;101849.81;;;21.76
15333;BMP180;7766;51.534;6.722;2023-03-01T13:50:04;101847.31;;;21.81
15333;BMP180;7766;51.534;6.722;2023-03-01T13:51:10;101850.22;;;21.27
15333;BMP180;7766;51.534;6.722;2023-03-01T13:52:44;101856.75;;;18.20
15333;BMP180;7766;51.534;6.722;2023-03-01T13:53:47;101857.66;;;19.94
15333;BMP180;7766;51.534;6.722;2023-03-01T13:54:48;101857.47;;;19.89
15333;BMP180;7766;51.534;6.722;2023-03-01T13:55:52;101853.53;;;19.98
15333;BMP180;7766;51.534;6.722;2023-03-01T13:56:56;101840.78;;;20.00
15333;BMP180;7766;51.534;6.722;2023-03-01T13:58:01;101841.66;;;19.94
15333;BMP180;7766;51.534;6.722;2023-03-01T13:59:17;101845.91;;;19.65
15333;BMP180;7766;51.534;6.722;2023-03-01T14:00:32;101854.53;;;19.67
15333;BMP180;7766;51.534;6.722;2023-03-01T14:01:35;101846.97;;;19.94
15333;BMP180;7766;51.534;6.722;2023-03-01T14:02:36;101835.34;;;19.33
15333;BMP180;7766;51.534;6.722;2023-03-01T14:03:41;101839.13;;;19.13
15333;BMP180;7766;51.534;6.722;2023-03-01T14:04:42;101837.47;;;19.12
15333;BMP180;7766;51.534;6.722;2023-03-01T14:07:22;101832.59;;;19.03
15333;BMP180;7766;51.534;6.722;2023-03-01T14:08:28;101835.47;;;18.45
15333;BMP180;7766;51.534;6.722;2023-03-01T14:09:30;101832.00;;;18.57
15333;BMP180;7766;51.534;6.722;2023-03-01T14:15:29;101828.72;;;18.55
15333;BMP180;7766;51.534;6.722;2023-03-01T14:18:00;101827.34;;;17.69
15333;BMP180;7766;51.534;6.722;2023-03-01T14:19:21;101821.47;;;17.28
15333;BMP180;7766;51.534;6.722;2023-03-01T14:20:28;101829.47;;;16.75
15333;BMP180;7766;51.534;6.722;2023-03-01T14:21:30;101829.00;;;16.65
15333;BMP180;7766;51.534;6.722;2023-03-01T14:22:35;66029.41;;;-132.42
15333;BMP180;7766;51.534;6.722;2023-03-01T14:23:39;66029.41;;;-132.42
15333;BMP180;7766;51.534;6.722;2023-03-01T14:24:52;66029.41;;;-132.42
15333;BMP180;7766;51.534;6.722;2023-03-01T14:25:56;66029.41;;;-132.42
15333;BMP180;7766;51.534;6.722;2023-03-01T14:26:58;66029.41;;;-132.42
15333;BMP180;7766;51.534;6.722;2023-03-01T14:28:16;66029.41;;;-132.42
15333;BMP180;7766;51.534;6.722;2023-03-01T14:30:35;66029.41;;;-132.42
15333;BMP180;7766;51.534;6.722;2023-03-01T14:31:40;101816.69;;;17.17
15333;BMP180;7766;51.534;6.722;2023-03-01T14:32:59;101812.22;;;17.70
15333;BMP180;7766;51.534;6.722;2023-03-01T14:34:00;101803.09;;;18.54
15333;BMP180;7766;51.534;6.722;2023-03-01T14:35:02;101809.97;;;19.18
15333;BMP180;7766;51.534;6.722;2023-03-01T14:36:06;101805.38;;;19.50
15333;BMP180;7766;51.534;6.722;2023-03-01T14:37:22;101800.28;;;19.79
15333;BMP180;7766;51.534;6.722;2023-03-01T14:38:50;101791.50;;;19.23
15333;BMP180;7766;51.534;6.722;2023-03-01T14:39:51;101793.78;;;19.20
15333;BMP180;7766;51.534;6.722;2023-03-01T14:40:57;101796.19;;;19.34
15333;BMP180;7766;51.534;6.722;2023-03-01T14:41:59;101795.66;;;19.98
15333;BMP180;7766;51.534;6.722;2023-03-01T14:43:02;101786.84;;;20.28
15333;BMP180;7766;51.534;6.722;2023-03-01T14:44:18;101792.53;;;20.55
15333;BMP180;7766;51.534;6.722;2023-03-01T14:45:20;101786.53;;;21.00
15333;BMP180;7766;51.534;6.722;2023-03-01T14:46:25;101790.19;;;21.41
15333;BMP180;7766;51.534;6.722;2023-03-01T14:47:32;101779.88;;;21.09
15333;BMP180;7766;51.534;6.722;2023-03-01T14:48:33;101786.22;;;20.91
15333;BMP180;7766;51.534;6.722;2023-03-01T14:49:34;101784.09;;;20.99
15333;BMP180;7766;51.534;6.722;2023-03-01T14:50:42;101791.03;;;21.06
15333;BMP180;7766;51.534;6.722;2023-03-01T14:51:59;101786.41;;;21.13
15333;BMP180;7766;51.534;6.722;2023-03-01T14:53:05;101783.06;;;20.59
15333;BMP180;7766;51.534;6.722;2023-03-01T14:54:27;101788.91;;;20.50
15333;BMP180;7766;51.534;6.722;2023-03-01T14:55:37;101790.66;;;20.97
15333;BMP180;7766;51.534;6.722;2023-03-01T14:56:46;101781.00;;;21.19
15333;BMP180;7766;51.534;6.722;2023-03-01T14:57:50;101783.06;;;21.17
15333;BMP180;7766;51.534;6.722;2023-03-01T14:58:53;101789.56;;;21.39
15333;BMP180;7766;51.534;6.722;2023-03-01T15:00:03;101785.31;;;21.95
15333;BMP180;7766;51.534;6.722;2023-03-01T15:01:10;101775.06;;;22.43
15333;BMP180;7766;51.534;6.722;2023-03-01T15:02:16;101777.19;;;22.86
15333;BMP180;7766;51.534;6.722;2023-03-01T15:04:28;101765.84;;;23.06
15333;BMP180;7766;51.534;6.722;2023-03-01T15:05:33;101767.03;;;22.76
15333;BMP180;7766;51.534;6.722;2023-03-01T15:06:35;101773.94;;;23.44
15333;BMP180;7766;51.534;6.722;2023-03-01T15:07:40;101766.25;;;22.76
15333;BMP180;7766;51.534;6.722;2023-03-01T15:08:44;101760.75;;;23.43
15333;BMP180;7766;51.534;6.722;2023-03-01T15:09:46;101760.28;;;24.00
15333;BMP180;7766;51.534;6.722;2023-03-01T15:11:19;101751.66;;;24.46
15333;BMP180;7766;51.534;6.722;2023-03-01T15:12:36;101759.19;;;24.60
15333;BMP180;7766;51.534;6.722;2023-03-01T15:13:37;101749.50;;;24.80
15333;BMP180;7766;51.534;6.722;2023-03-01T15:14:55;101750.28;;;25.13
15333;BMP180;7766;51.534;6.722;2023-03-01T15:16:26;101743.66;;;25.04
15333;BMP180;7766;51.534;6.722;2023-03-01T15:17:33;101751.59;;;24.57
15333;BMP180;7766;51.534;6.722;2023-03-01T15:18:36;101750.69;;;24.68
15333;BMP180;7766;51.534;6.722;2023-03-01T15:19:37;101748.00;;;24.68
15333;BMP180;7766;51.534;6.722;2023-03-01T15:20:39;101735.34;;;24.84
15333;BMP180;7766;51.534;6.722;2023-03-01T15:21:49;101735.00;;;24.81
15333;BMP180;7766;51.534;6.722;2023-03-01T15:22:50;101739.88;;;24.63
15333;BMP180;7766;51.534;6.722;2023-03-01T15:25:05;101734.56;;;24.52
15333;BMP180;7766;51.534;6.722;2023-03-01T15:26:16;101733.75;;;24.35
15333;BMP180;7766;51.534;6.722;2023-03-01T15:27:25;101741.59;;;23.23
15333;BMP180;7766;51.534;6.722;2023-03-01T15:28:32;101748.00;;;22.22
15333;BMP180;7766;51.534;6.722;2023-03-01T15:29:34;101750.03;;;21.87
15333;BMP180;7766;51.534;6.722;2023-03-01T15:30:41;101749.34;;;21.16
15333;BMP180;7766;51.534;6.722;2023-03-01T15:31:42;101750.28;;;20.69
15333;BMP180;7766;51.534;6.722;2023-03-01T15:32:43;101752.19;;;19.91
15333;BMP180;7766;51.534;6.722;2023-03-01T15:33:45;101751.44;;;18.99
15333;BMP180;7766;51.534;6.722;2023-03-01T15:34:48;101763.41;;;17.96
15333;BMP180;7766;51.534;6.722;2023-03-01T15:35:51;101754.59;;;17.18
15333;BMP180;7766;51.534;6.722;2023-03-01T15:36:54;101772.38;;;16.52
15333;BMP180;7766;51.534;6.722;2023-03-01T15:37:56;101771.66;;;15.90
15333;BMP180;7766;51.534;6.722;2023-03-01T15:39:02;101778.81;;;15.07
15333;BMP180;7766;51.534;6.722;2023-03-01T15:40:25;66029.41;;;-132.42
15333;BMP180;7766;51.534;6.722;2023-03-01T15:41:47;66029.41;;;-132.42
15333;BMP180;7766;51.534;6.722;2023-03-01T15:42:48;66029.41;;;-132.42
15333;BMP180;7766;51.534;6.722;2023-03-01T15:43:49;66029.41;;;-132.42
15333;BMP180;7766;51.534;6.722;2023-03-01T15:46:27;66029.41;;;-132.42
15333;BMP180;7766;51.534;6.722;2023-03-01T15:47:31;66029.41;;;-132.42
15333;BMP180;7766;51.534;6.722;2023-03-01T15:48:32;66029.41;;;-132.42
15333;BMP180;7766;51.534;6.722;2023-03-01T15:50:37;66029.41;;;-132.42
15333;BMP180;7766;51.534;6.722;2023-03-01T15:51:40;66029.41;;;-132.42
15333;BMP180;7766;51.534;6.722;2023-03-01T15:52:42;66029.41;;;-132.42
15333;BMP180;7766;51.534;6.722;2023-03-01T15:53:50;66029.41;;;-132.42
15333;BMP180;7766;51.534;6.722;2023-03-01T15:54:51;66029.41;;;-132.42
15333;BMP180;7766;51.534;6.722;2023-03-01T15:55:53;66029.41;;;-132.42
15333;BMP180;7766;51.534;6.722;2023-03-01T15:56:54;66029.41;;;-132.42
15333;BMP180;7766;51.534;6.722;2023-03-01T15:58:10;66029.41;;;-132.42
15333;BMP180;7766;51.534;6.722;2023-03-01T15:59:13;66029.41;;;-132.42
15333;BMP180;7766;51.534;6.722;2023-03-01T16:00:15;66029.41;;;-132.42
15333;BMP180;7766;51.534;6.722;2023-03-01T16:01:18;66029.41;;;-132.42
15333;BMP180;7766;51.534;6.722;2023-03-01T16:02:19;66029.41;;;-132.42
15333;BMP180;7766;51.534;6.722;2023-03-01T16:03:22;66029.41;;;-132.42
15333;BMP180;7766;51.534;6.722;2023-03-01T16:04:23;66029.41;;;-132.42
15333;BMP180;7766;51.534;6.722;2023-03-01T16:05:30;66029.41;;;-132.42
15333;BMP180;7766;51.534;6.722;2023-03-01T16:06:31;66029.41;;;-132.42
15333;BMP180;7766;51.534;6.722;2023-03-01T16:07:32;66029.41;;;-132.42
15333;BMP180;7766;51.534;6.722;2023-03-01T16:08:33;66029.41;;;-132.42
15333;BMP180;7766;51.534;6.722;2023-03-01T16:09:34;66029.41;;;-132.42
15333;BMP180;7766;51.534;6.722;2023-03-01T16:10:36;66029.41;;;-132.42
15333;BMP180;7766;51.534;6.722;2023-03-01T16:11:37;66029.41;;;-132.42
15333;BMP180;7766;51.534;6.722;2023-03-01T16:12:38;66029.41;;;-132.42
15333;BMP180;7766;51.534;6.722;2023-03-01T16:13:40;66029.41;;;-132.42
15333;BMP180;7766;51.534;6.722;2023-03-01T16:14:40;66029.41;;;-132.42
15333;BMP180;7766;51.534;6.722;2023-03-01T16:15:41;66029.41;;;-132.42
15333;BMP180;7766;51.534;6.722;2023-03-01T16:16:43;66029.41;;;-132.42
15333;BMP180;7766;51.534;6.722;2023-03-01T16:17:45;66029.41;;;-132.42
15333;BMP180;7766;51.534;6.722;2023-03-01T16:18:46;66029.41;;;-132.42
15333;BMP180;7766;51.534;6.722;2023-03-01T16:19:47;66029.41;;;-132.42
15333;BMP180;7766;51.534;6.722;2023-03-01T16:20:48;66029.41;;;-132.42
15333;BMP180;7766;51.534;6.722;2023-03-01T16:21:49;66029.41;;;-132.42
15333;BMP180;7766;51.534;6.722;2023-03-01T16:22:51;66029.41;;;-132.42
15333;BMP180;7766;51.534;6.722;2023-03-01T16:23:52;66029.41;;;-132.42
15333;BMP180;7766;51.534;6.722;2023-03-01T16:24:53;66029.41;;;-132.42
15333;BMP180;7766;51.534;6.722;2023-03-01T16:25:59;66029.41;;;-132.42
15333;BMP180;7766;51.534;6.722;2023-03-01T16:27:00;66029.41;;;-132.42
15333;BMP180;7766;51.534;6.722;2023-03-01T16:28:02;66029.41;;;-132.42
15333;BMP180;7766;51.534;6.722;2023-03-01T16:29:05;66029.41;;;-132.42
15333;BMP180;7766;51.534;6.722;2023-03-01T16:30:07;66029.41;;;-132.42
15333;BMP180;7766;51.534;6.722;2023-03-01T16:31:09;66029.41;;;-132.42
15333;BMP180;7766;51.534;6.722;2023-03-01T16:32:10;66029.41;;;-132.42
15333;BMP180;7766;51.534;6.722;2023-03-01T16:33:11;66029.41;;;-132.42
15333;BMP180;7766;51.534;6.722;2023-03-01T16:34:13;66029.41;;;-132.42
15333;BMP180;7766;51.534;6.722;2023-03-01T16:35:16;66029.41;;;-132.42
15333;BMP180;7766;51.534;6.722;2023-03-01T16:36:18;66029.41;;;-132.42
15333;BMP180;7766;51.534;6.722;2023-03-01T16:37:20;66029.41;;;-132.42
15333;BMP180;7766;51.534;6.722;2023-03-01T16:38:22;66029.41;;;-132.42
15333;BMP180;7766;51.534;6.722;2023-03-01T16:39:23;66029.41;;;-132.42
15333;BMP180;7766;51.534;6.722;2023-03-01T16:40:27;66029.41;;;-132.42
15333;BMP180;7766;51.534;6.722;2023-03-01T16:41:28;66029.41;;;-132.42
15333;BMP180;7766;51.534;6.722;2023-03-01T16:42:33;66029.41;;;-132.42
15333;BMP180;7766;51.534;6.722;2023-03-01T16:43:34;66029.41;;;-132.42
15333;BMP180;7766;51.534;6.722;2023-03-01T16:44:36;66029.41;;;-132.42
15333;BMP180;7766;51.534;6.722;2023-03-01T16:45:37;66029.41;;;-132.42
15333;BMP180;7766;51.534;6.722;2023-03-01T16:46:42;66029.41;;;-132.42
15333;BMP180;7766;51.534;6.722;2023-03-01T16:47:44;66029.41;;;-132.42
15333;BMP180;7766;51.534;6.722;2023-03-01T16:48:46;66029.41;;;-132.42
15333;BMP180;7766;51.534;6.722;2023-03-01T16:49:51;66029.41;;;-132.42
15333;BMP180;7766;51.534;6.722;2023-03-01T16:51:00;66029.41;;;-132.42
15333;BMP180;7766;51.534;6.722;2023-03-01T16:52:01;66029.41;;;-132.42
15333;BMP180;7766;51.534;6.722;2023-03-01T16:53:02;66029.41;;;-132.42
15333;BMP180;7766;51.534;6.722;2023-03-01T16:54:03;66029.41;;;-132.42
15333;BMP180;7766;51.534;6.722;2023-03-01T16:55:06;66029.41;;;-132.42
15333;BMP180;7766;51.534;6.722;2023-03-01T16:56:10;66029.41;;;-132.42
15333;BMP180;7766;51.534;6.722;2023-03-01T16:57:11;66029.41;;;-132.42
15333;BMP180;7766;51.534;6.722;2023-03-01T16:58:12;66029.41;;;-132.42
15333;BMP180;7766;51.534;6.722;2023-03-01T16:59:13;66029.41;;;-132.42
15333;BMP180;7766;51.534;6.722;2023-03-01T17:00:15;66029.41;;;-132.42
15333;BMP180;7766;51.534;6.722;2023-03-01T17:01:18;66029.41;;;-132.42
15333;BMP180;7766;51.534;6.722;2023-03-01T17:02:20;66029.41;;;-132.42
15333;BMP180;7766;51.534;6.722;2023-03-01T17:03:23;66029.41;;;-132.42
15333;BMP180;7766;51.534;6.722;2023-03-01T17:04:24;66029.41;;;-132.42
15333;BMP180;7766;51.534;6.722;2023-03-01T17:05:24;66029.41;;;-132.42
15333;BMP180;7766;51.534;6.722;2023-03-01T17:06:26;66029.41;;;-132.42
15333;BMP180;7766;51.534;6.722;2023-03-01T17:07:28;66029.41;;;-132.42
15333;BMP180;7766;51.534;6.722;2023-03-01T17:08:29;66029.41;;;-132.42
15333;BMP180;7766;51.534;6.722;2023-03-01T17:09:33;66029.41;;;-132.42
15333;BMP180;7766;51.534;6.722;2023-03-01T17:10:34;66029.41;;;-132.42
15333;BMP180;7766;51.534;6.722;2023-03-01T17:11:35;66029.41;;;-132.42
15333;BMP180;7766;51.534;6.722;2023-03-01T17:12:37;66029.41;;;-132.42
15333;BMP180;7766;51.534;6.722;2023-03-01T17:13:39;66029.41;;;-132.42
15333;BMP180;7766;51.534;6.722;2023-03-01T17:14:40;66029.41;;;-132.42
15333;BMP180;7766;51.534;6.722;2023-03-01T17:15:42;66029.41;;;-132.42
15333;BMP180;7766;51.534;6.722;2023-03-01T17:16:43;66029.41;;;-132.42
15333;BMP180;7766;51.534;6.722;2023-03-01T17:17:45;66029.41;;;-132.42
15333;BMP180;7766;51.534;6.722;2023-03-01T17:18:51;66029.41;;;-132.42
15333;BMP180;7766;51.534;6.722;2023-03-01T17:19:52;66029.41;;;-132.42
15333;BMP180;7766;51.534;6.722;2023-03-01T17:20:53;66029.41;;;-132.42
15333;BMP180;7766;51.534;6.722;2023-03-01T17:21:54;66029.41;;;-132.42
15333;BMP180;7766;51.534;6.722;2023-03-01T17:22:55;66029.41;;;-132.42
15333;BMP180;7766;51.534;6.722;2023-03-01T17:23:57;66029.41;;;-132.42
15333;BMP180;7766;51.534;6.722;2023-03-01T17:24:58;66029.41;;;-132.42
15333;BMP180;7766;51.534;6.722;2023-03-01T17:25:59;66029.41;;;-132.42
15333;BMP180;7766;51.534;6.722;2023-03-01T17:27:00;66029.41;;;-132.42
15333;BMP180;7766;51.534;6.722;2023-03-01T17:28:01;66029.41;;;-132.42
15333;BMP180;7766;51.534;6.722;2023-03-01T17:29:03;66029.41;;;-132.42
15333;BMP180;7766;51.534;6.722;2023-03-01T17:30:06;66029.41;;;-132.42
15333;BMP180;7766;51.534;6.722;2023-03-01T17:31:08;66029.41;;;-132.42
15333;BMP180;7766;51.534;6.722;2023-03-01T17:32:09;66029.41;;;-132.42
15333;BMP180;7766;51.534;6.722;2023-03-01T17:33:10;66029.41;;;-132.42
15333;BMP180;7766;51.534;6.722;2023-03-01T17:34:11;66029.41;;;-132.42
15333;BMP180;7766;51.534;6.722;2023-03-01T17:35:12;66029.41;;;-132.42
15333;BMP180;7766;51.534;6.722;2023-03-01T17:36:13;66029.41;;;-132.42
15333;BMP180;7766;51.534;6.722;2023-03-01T17:37:14;66029.41;;;-132.42
15333;BMP180;7766;51.534;6.722;2023-03-01T17:38:15;66029.41;;;-132.42
15333;BMP180;7766;51.534;6.722;2023-03-01T17:39:18;66029.41;;;-132.42
15333;BMP180;7766;51.534;6.722;2023-03-01T17:40:25;66029.41;;;-132.42
15333;BMP180;7766;51.534;6.722;2023-03-01T17:41:26;66029.41;;;-132.42
15333;BMP180;7766;51.534;6.722;2023-03-01T17:42:28;66029.41;;;-132.42
15333;BMP180;7766;51.534;6.722;2023-03-01T17:43:29;66029.41;;;-132.42
15333;BMP180;7766;51.534;6.722;2023-03-01T17:44:31;66029.41;;;-132.42
15333;BMP180;7766;51.534;6.722;2023-03-01T17:45:36;66029.41;;;-132.42
15333;BMP180;7766;51.534;6.722;2023-03-01T17:46:37;66029.41;;;-132.42
15333;BMP180;7766;51.534;6.722;2023-03-01T17:47:39;66029.41;;;-132.42
15333;BMP180;7766;51.534;6.722;2023-03-01T17:48:39;66029.41;;;-132.42
15333;BMP180;7766;51.534;6.722;2023-03-01T17:49:40;66029.41;;;-132.42
15333;BMP180;7766;51.534;6.722;2023-03-01T17:50:42;66029.41;;;-132.42
15333;BMP180;7766;51.534;6.722;2023-03-01T17:51:43;66029.41;;;-132.42
15333;BMP180;7766;51.534;6.722;2023-03-01T17:52:45;66029.41;;;-132.42
15333;BMP180;7766;51.534;6.722;2023-03-01T17:53:46;66029.41;;;-132.42
15333;BMP180;7766;51.534;6.722;2023-03-01T17:54:47;66029.41;;;-132.42
15333;BMP180;7766;51.534;6.722;2023-03-01T17:55:48;66029.41;;;-132.42
15333;BMP180;7766;51.534;6.722;2023-03-01T17:56:54;66029.41;;;-132.42
15333;BMP180;7766;51.534;6.722;2023-03-01T17:57:55;66029.41;;;-132.42
15333;BMP180;7766;51.534;6.722;2023-03-01T17:58:56;66029.41;;;-132.42
15333;BMP180;7766;51.534;6.722;2023-03-01T17:59:57;66029.41;;;-132.42
15333;BMP180;7766;51.534;6.722;2023-03-01T18:01:14;66029.41;;;-132.42
15333;BMP180;7766;51.534;6.722;2023-03-01T18:02:15;66029.41;;;-132.42
15333;BMP180;7766;51.534;6.722;2023-03-01T18:03:16;66029.41;;;-132.42
15333;BMP180;7766;51.534;6.722;2023-03-01T18:04:18;66029.41;;;-132.42
15333;BMP180;7766;51.534;6.722;2023-03-01T18:05:19;66029.41;;;-132.42
15333;BMP180;7766;51.534;6.722;2023-03-01T18:06:23;66029.41;;;-132.42
15333;BMP180;7766;51.534;6.722;2023-03-01T18:07:27;66029.41;;;-132.42
15333;BMP180;7766;51.534;6.722;2023-03-01T18:08:28;66029.41;;;-132.42
15333;BMP180;7766;51.534;6.722;2023-03-01T18:09:29;66029.41;;;-132.42
15333;BMP180;7766;51.534;6.722;2023-03-01T18:10:31;66029.41;;;-132.42
15333;BMP180;7766;51.534;6.722;2023-03-01T18:11:33;66029.41;;;-132.42
15333;BMP180;7766;51.534;6.722;2023-03-01T18:12:35;66029.41;;;-132.42
15333;BMP180;7766;51.534;6.722;2023-03-01T18:13:36;66029.41;;;-132.42
15333;BMP180;7766;51.534;6.722;2023-03-01T18:14:39;66029.41;;;-132.42
15333;BMP180;7766;51.534;6.722;2023-03-01T18:15:40;66029.41;;;-132.42
15333;BMP180;7766;51.534;6.722;2023-03-01T18:16:41;66029.41;;;-132.42
15333;BMP180;7766;51.534;6.722;2023-03-01T18:17:42;66029.41;;;-132.42
15333;BMP180;7766;51.534;6.722;2023-03-01T18:18:43;66029.41;;;-132.42
15333;BMP180;7766;51.534;6.722;2023-03-01T18:19:47;66029.41;;;-132.42
15333;BMP180;7766;51.534;6.722;2023-03-01T18:20:55;66029.41;;;-132.42
15333;BMP180;7766;51.534;6.722;2023-03-01T18:21:57;66029.41;;;-132.42
15333;BMP180;7766;51.534;6.722;2023-03-01T18:22:58;66029.41;;;-132.42
15333;BMP180;7766;51.534;6.722;2023-03-01T18:23:59;66029.41;;;-132.42
15333;BMP180;7766;51.534;6.722;2023-03-01T18:25:01;66029.41;;;-132.42
15333;BMP180;7766;51.534;6.722;2023-03-01T18:26:05;66029.41;;;-132.42
15333;BMP180;7766;51.534;6.722;2023-03-01T18:27:07;66029.41;;;-132.42
15333;BMP180;7766;51.534;6.722;2023-03-01T18:28:08;66029.41;;;-132.42
15333;BMP180;7766;51.534;6.722;2023-03-01T18:29:09;66029.41;;;-132.42
15333;BMP180;7766;51.534;6.722;2023-03-01T18:30:11;66029.41;;;-132.42
15333;BMP180;7766;51.534;6.722;2023-03-01T18:31:14;66029.41;;;-132.42
15333;BMP180;7766;51.534;6.722;2023-03-01T18:32:18;66029.41;;;-132.42
15333;BMP180;7766;51.534;6.722;2023-03-01T18:33:19;66029.41;;;-132.42
15333;BMP180;7766;51.534;6.722;2023-03-01T18:34:20;66029.41;;;-132.42
15333;BMP180;7766;51.534;6.722;2023-03-01T18:35:22;66029.41;;;-132.42
15333;BMP180;7766;51.534;6.722;2023-03-01T18:36:34;66029.41;;;-132.42
15333;BMP180;7766;51.534;6.722;2023-03-01T18:37:35;66029.41;;;-132.42
15333;BMP180;7766;51.534;6.722;2023-03-01T18:38:36;66029.41;;;-132.42
15333;BMP180;7766;51.534;6.722;2023-03-01T18:39:37;66029.41;;;-132.42
15333;BMP180;7766;51.534;6.722;2023-03-01T18:40:40;66029.41;;;-132.42
15333;BMP180;7766;51.534;6.722;2023-03-01T18:41:41;66029.41;;;-132.42
15333;BMP180;7766;51.534;6.722;2023-03-01T18:42:42;66029.41;;;-132.42
15333;BMP180;7766;51.534;6.722;2023-03-01T18:43:43;66029.41;;;-132.42
15333;BMP180;7766;51.534;6.722;2023-03-01T18:44:47;66029.41;;;-132.42
15333;BMP180;7766;51.534;6.722;2023-03-01T18:45:56;66029.41;;;-132.42
15333;BMP180;7766;51.534;6.722;2023-03-01T18:46:58;66029.41;;;-132.42
15333;BMP180;7766;51.534;6.722;2023-03-01T18:47:59;66029.41;;;-132.42
15333;BMP180;7766;51.534;6.722;2023-03-01T18:49:00;66029.41;;;-132.42
15333;BMP180;7766;51.534;6.722;2023-03-01T18:50:01;66029.41;;;-132.42
15333;BMP180;7766;51.534;6.722;2023-03-01T18:51:15;66029.41;;;-132.42
15333;BMP180;7766;51.534;6.722;2023-03-01T18:52:16;66029.41;;;-132.42
15333;BMP180;7766;51.534;6.722;2023-03-01T18:53:17;66029.41;;;-132.42
15333;BMP180;7766;51.534;6.722;2023-03-01T18:54:19;66029.41;;;-132.42
15333;BMP180;7766;51.534;6.722;2023-03-01T18:55:20;66029.41;;;-132.42
15333;BMP180;7766;51.534;6.722;2023-03-01T18:56:21;66029.41;;;-132.42
15333;BMP180;7766;51.534;6.722;2023-03-01T18:57:22;66029.41;;;-132.42
15333;BMP180;7766;51.534;6.722;2023-03-01T18:58:23;66029.41;;;-132.42
15333;BMP180;7766;51.534;6.722;2023-03-01T18:59:24;66029.41;;;-132.42
15333;BMP180;7766;51.534;6.722;2023-03-01T19:00:25;66029.41;;;-132.42
15333;BMP180;7766;51.534;6.722;2023-03-01T19:01:29;66029.41;;;-132.42
15333;BMP180;7766;51.534;6.722;2023-03-01T19:02:30;66029.41;;;-132.42
15333;BMP180;7766;51.534;6.722;2023-03-01T19:03:31;66029.41;;;-132.42
15333;BMP180;7766;51.534;6.722;2023-03-01T19:04:32;66029.41;;;-132.42
15333;BMP180;7766;51.534;6.722;2023-03-01T19:05:33;66029.41;;;-132.42
15333;BMP180;7766;51.534;6.722;2023-03-01T19:06:34;66029.41;;;-132.42
15333;BMP180;7766;51.534;6.722;2023-03-01T19:07:35;66029.41;;;-132.42
15333;BMP180;7766;51.534;6.722;2023-03-01T19:08:36;66029.41;;;-132.42
15333;BMP180;7766;51.534;6.722;2023-03-01T19:09:39;66029.41;;;-132.42
15333;BMP180;7766;51.534;6.722;2023-03-01T19:10:40;66029.41;;;-132.42
15333;BMP180;7766;51.534;6.722;2023-03-01T19:11:41;66029.41;;;-132.42
15333;BMP180;7766;51.534;6.722;2023-03-01T19:12:42;66029.41;;;-132.42
15333;BMP180;7766;51.534;6.722;2023-03-01T19:13:44;66029.41;;;-132.42
15333;BMP180;7766;51.534;6.722;2023-03-01T19:14:45;66029.41;;;-132.42
15333;BMP180;7766;51.534;6.722;2023-03-01T19:15:46;66029.41;;;-132.42
15333;BMP180;7766;51.534;6.722;2023-03-01T19:16:47;66029.41;;;-132.42
15333;BMP180;7766;51.534;6.722;2023-03-01T19:17:48;66029.41;;;-132.42
15333;BMP180;7766;51.534;6.722;2023-03-01T19:18:49;66029.41;;;-132.42
15333;BMP180;7766;51.534;6.722;2023-03-01T19:19:51;66029.41;;;-132.42
15333;BMP180;7766;51.534;6.722;2023-03-01T19:20:58;66029.41;;;-132.42
15333;BMP180;7766;51.534;6.722;2023-03-01T19:21:59;66029.41;;;-132.42
15333;BMP180;7766;51.534;6.722;2023-03-01T19:23:00;66029.41;;;-132.42
15333;BMP180;7766;51.534;6.722;2023-03-01T19:24:02;66029.41;;;-132.42
15333;BMP180;7766;51.534;6.722;2023-03-01T19:25:04;66029.41;;;-132.42
15333;BMP180;7766;51.534;6.722;2023-03-01T19:26:11;66029.41;;;-132.42